Time;durP1;ratioP1;P1;durP2;ratioP2;P2;SDS_P1;SDS_P2;PMS_P1;PMS_P2;Temp;Humidity;BMP_temperature;BMP_pressure;BME280_temperature;BME280_humidity;BME280_pressure;Samples;Min_cycle;Max_cycle;Signal;HPM_P1;HPM_P2
2022/08/19 06:11:15;;;;;;;8.18;5.63;;;;;;;;;;11171634;22;33240923;-87
2022/08/19 06:17:01;;;;;;;10.57;8.63;;;;;;;;;;12396808;24;20069;-87
2022/08/19 06:39:17;;;;;;;10.05;8.25;;;;;;;;;;12365781;23;20012;-87
2022/08/19 06:44:21;;;;;;;10.25;7.90;;;;;;;;;;12438061;23;20006;-86
2022/08/19 06:49:30;;;;;;;11.57;7.75;;;;;;;;;;12767332;23;20016;-84
2022/08/19 06:54:47;;;;;;;8.63;7.73;;;;;;;;;;12767682;23;20089;-86
2022/08/19 06:59:56;;;;;;;8.85;8.00;;;;;;;;;;12766636;23;20025;-86
2022/08/19 07:05:04;;;;;;;7.82;6.20;;;;;;;;;;12771107;23;20016;-85
2022/08/19 07:10:08;;;;;;;7.72;6.50;;;;;;;;;;12810150;23;20445;-85
2022/08/19 07:15:10;;;;;;;11.57;8.55;;;;;;;;;;12764051;23;20323;-85
2022/08/19 07:20:18;;;;;;;15.13;11.38;;;;;;;;;;12790987;23;20001;-85
2022/08/19 07:25:21;;;;;;;11.13;10.00;;;;;;;;;;12790679;23;20184;-85
2022/08/19 07:30:23;;;;;;;9.40;8.07;;;;;;;;;;12791255;23;20084;-85
2022/08/19 07:35:25;;;;;;;8.95;7.00;;;;;;;;;;12790269;23;20123;-85
2022/08/19 07:40:26;;;;;;;10.48;8.82;;;;;;;;;;12790342;23;20012;-85
2022/08/19 07:45:36;;;;;;;13.88;12.50;;;;;;;;;;12788068;23;20122;-85
2022/08/19 07:50:38;;;;;;;14.60;13.20;;;;;;;;;;12785924;23;20005;-84
2022/08/19 07:55:40;;;;;;;8.52;7.30;;;;;;;;;;12783267;23;20065;-85
2022/08/19 08:00:42;;;;;;;8.95;7.85;;;;;;;;;;12780838;23;20041;-84
2022/08/19 08:11:02;;;;;;;;;;;;;;;;;;12811599;23;20017;-85
2022/08/19 08:16:04;;;;;;;11.98;8.90;;;;;;;;;;12787558;23;19900;-86
2022/08/19 08:21:06;;;;;;;12.32;11.13;;;;;;;;;;12784744;23;20004;-84
2022/08/19 08:26:08;;;;;;;13.65;12.13;;;;;;;;;;12789823;23;20096;-83
2022/08/19 08:31:09;;;;;;;9.27;8.27;;;;;;;;;;12785243;23;20080;-84
2022/08/19 08:36:13;;;;;;;11.80;10.57;;;;;;;;;;12809522;23;20013;-85
2022/08/19 08:41:19;;;;;;;10.18;9.18;;;;;;;;;;12814910;23;20013;-84
2022/08/19 08:46:45;;;;;;;9.18;8.32;;;;;;;;;;12782529;23;20001;-84
2022/08/19 08:51:53;;;;;;;14.85;13.40;;;;;;;;;;12783386;23;20005;-84
2022/08/19 08:57:00;;;;;;;11.18;10.05;;;;;;;;;;12788496;23;20000;-84
2022/08/19 09:02:01;;;;;;;12.52;11.20;;;;;;;;;;12809168;23;20058;-85
2022/08/19 09:07:08;;;;;;;11.85;10.65;;;;;;;;;;12781628;23;20009;-84
2022/08/19 09:12:38;;;;;;;14.25;10.43;;;;;;;;;;12782424;23;20009;-84
2022/08/19 09:18:04;;;;;;;11.32;10.18;;;;;;;;;;12729743;23;20005;-84
2022/08/19 09:40:30;;;;;;;13.68;11.15;;;;;;;;;;12839205;23;20001;-84
2022/08/19 09:51:44;;;;;;;19.15;15.98;;;;;;;;;;12836394;23;20009;-85
2022/08/19 10:08:06;;;;;;;13.00;10.75;;;;;;;;;;12606263;23;20027;-83
2022/08/19 10:13:12;;;;;;;11.27;8.98;;;;;;;;;;12830869;23;20001;-84
2022/08/19 10:18:17;;;;;;;11.48;10.25;;;;;;;;;;12821400;23;20006;-85
2022/08/19 10:23:20;;;;;;;10.13;9.23;;;;;;;;;;12818234;23;20013;-83
2022/08/19 10:28:22;;;;;;;10.23;9.25;;;;;;;;;;12797811;23;20072;-86
2022/08/19 10:33:28;;;;;;;12.05;10.80;;;;;;;;;;12762684;23;20005;-86
2022/08/19 10:38:42;;;;;;;11.70;10.13;;;;;;;;;;12789788;23;20092;-84
2022/08/19 11:01:13;;;;;;;12.35;11.25;;;;;;;;;;12840396;23;20437;-85
2022/08/19 11:07:17;;;;;;;11.85;10.70;;;;;;;;;;12813257;23;20065;-84
2022/08/19 11:24:07;;;;;;;13.38;12.07;;;;;;;;;;12741973;23;20061;-82
2022/08/19 11:30:16;;;;;;;10.65;9.65;;;;;;;;;;12782342;23;20024;-83
2022/08/19 11:35:23;;;;;;;15.17;13.57;;;;;;;;;;12528529;23;20012;-80
2022/08/19 11:40:25;;;;;;;11.15;8.90;;;;;;;;;;12504955;23;20235;-83
2022/08/19 11:45:29;;;;;;;13.13;11.93;;;;;;;;;;12597164;23;20034;-82
2022/08/19 11:50:30;;;;;;;13.70;12.40;;;;;;;;;;12735951;23;20029;-83
2022/08/19 12:18:08;;;;;;;12.07;11.00;;;;;;;;;;12777226;23;20036;-82
2022/08/19 12:23:10;;;;;;;10.55;9.15;;;;;;;;;;12814952;23;20013;-83
2022/08/19 12:28:12;;;;;;;9.65;8.57;;;;;;;;;;12814020;23;20081;-83
2022/08/19 12:33:13;;;;;;;9.73;8.73;;;;;;;;;;12838816;23;20051;-83
2022/08/19 12:38:14;;;;;;;11.10;9.98;;;;;;;;;;12816629;23;20005;-83
2022/08/19 12:43:20;;;;;;;12.48;9.35;;;;;;;;;;12837528;23;20086;-83
2022/08/19 12:48:21;;;;;;;9.60;8.70;;;;;;;;;;12837822;23;20036;-83
2022/08/19 12:53:22;;;;;;;10.07;9.20;;;;;;;;;;12839871;23;19985;-83
2022/08/19 12:58:23;;;;;;;9.63;8.63;;;;;;;;;;12811975;23;20038;-83
2022/08/19 13:03:28;;;;;;;11.30;8.82;;;;;;;;;;12813574;23;20012;-82
2022/08/19 13:08:30;;;;;;;9.63;8.65;;;;;;;;;;12811105;23;20005;-81
2022/08/19 13:13:31;;;;;;;8.68;7.88;;;;;;;;;;12807880;23;20005;-82
2022/08/19 13:18:32;;;;;;;9.02;7.20;;;;;;;;;;12810414;23;20013;-83
2022/08/19 13:23:34;;;;;;;9.70;7.25;;;;;;;;;;12811773;23;20008;-82
2022/08/19 13:33:55;;;;;;;8.43;7.15;;;;;;;;;;12839988;23;20017;-83
2022/08/19 13:38:56;;;;;;;7.15;6.50;;;;;;;;;;12810104;23;20055;-83
2022/08/19 13:43:57;;;;;;;7.60;5.97;;;;;;;;;;12811526;23;19997;-82
2022/08/19 13:49:02;;;;;;;7.20;6.35;;;;;;;;;;12811068;23;20016;-83
2022/08/19 13:54:03;;;;;;;7.47;5.72;;;;;;;;;;12813636;23;20024;-84
2022/08/19 13:59:04;;;;;;;5.63;5.13;;;;;;;;;;12808995;23;20088;-84
2022/08/19 14:04:07;;;;;;;6.15;5.53;;;;;;;;;;12808372;23;20005;-84
2022/08/19 14:09:08;;;;;;;5.00;4.60;;;;;;;;;;12793214;23;20012;-85
2022/08/19 14:14:09;;;;;;;6.85;5.05;;;;;;;;;;12790538;23;20057;-84
2022/08/19 14:19:10;;;;;;;5.80;5.20;;;;;;;;;;12794128;23;20020;-85
2022/08/19 14:24:18;;;;;;;7.43;5.00;;;;;;;;;;12808330;23;20002;-83
2022/08/19 14:29:19;;;;;;;6.65;5.32;;;;;;;;;;12795190;23;20008;-83
2022/08/19 14:34:23;;;;;;;5.80;4.57;;;;;;;;;;12801744;23;20092;-85
2022/08/19 14:39:26;;;;;;;7.13;5.43;;;;;;;;;;12800923;23;20016;-85
2022/08/19 14:44:28;;;;;;;7.78;5.15;;;;;;;;;;12801661;23;20319;-85
2022/08/19 14:49:29;;;;;;;7.80;6.03;;;;;;;;;;12807062;23;20035;-84
2022/08/19 14:54:30;;;;;;;5.93;5.32;;;;;;;;;;12803979;23;20021;-84
2022/08/19 14:59:31;;;;;;;10.63;9.63;;;;;;;;;;12794463;23;20005;-85
2022/08/19 15:04:34;;;;;;;8.40;7.60;;;;;;;;;;12795054;23;20012;-84
2022/08/19 15:09:35;;;;;;;8.85;8.05;;;;;;;;;;12791165;23;20009;-84
2022/08/19 15:14:56;;;;;;;8.30;7.50;;;;;;;;;;12792727;23;20447;-85
2022/08/19 15:19:57;;;;;;;8.73;7.82;;;;;;;;;;12788138;23;20327;-84
2022/08/19 15:24:59;;;;;;;9.85;8.93;;;;;;;;;;12790997;23;20012;-85
2022/08/19 15:30:00;;;;;;;9.00;8.20;;;;;;;;;;12819113;23;19997;-84
2022/08/19 15:35:03;;;;;;;10.48;9.38;;;;;;;;;;12800770;23;20027;-82
2022/08/19 15:40:08;;;;;;;11.27;9.85;;;;;;;;;;12802219;23;20005;-84
2022/08/19 15:45:15;;;;;;;8.43;7.72;;;;;;;;;;12796317;23;20057;-81
2022/08/19 15:50:22;;;;;;;9.40;8.10;;;;;;;;;;12793167;23;20005;-84
2022/08/19 15:55:25;;;;;;;9.30;8.32;;;;;;;;;;12797734;23;20024;-84
2022/08/19 16:11:06;;;;;;;9.43;8.52;;;;;;;;;;12818705;23;20024;-85
2022/08/19 16:16:07;;;;;;;9.05;8.15;;;;;;;;;;12789201;23;20009;-83
2022/08/19 16:21:09;;;;;;;8.52;7.63;;;;;;;;;;12823489;23;20357;-84
2022/08/19 16:26:10;;;;;;;11.55;8.80;;;;;;;;;;12794815;23;20015;-85
2022/08/19 16:31:12;;;;;;;10.85;8.98;;;;;;;;;;12787942;23;20005;-86
2022/08/19 16:36:25;;;;;;;10.00;8.00;;;;;;;;;;12782563;23;20055;-86
2022/08/19 16:53:05;;;;;;;9.18;7.90;;;;;;;;;;12502309;23;20000;-87
2022/08/19 16:58:42;;;;;;;;;;;;;;;;;;;;;
2022/08/19 17:04:00;;;;;;;;;;;;;;;;;;;;;
2022/08/19 17:27:08;;;;;;;;;;;;;;;;;;;;;
2022/08/19 19:03:34;;;;;;;;;;;;;;;;;;;;;
2022/08/19 19:20:31;;;;;;;;;;;;;;;;;;;;;
